メインページ
METAR-TAF:

METAR-TAF

空港 :

ポルト・アレグレ, リオグランデ・ド・スル州, ブラジル

サルガド・フィーリョ国際空港

緯度: 30-00S, 経度: 051-11W, 海抜: 3m

現時点の気象観測

当レポートは1時間2分前の05:00(UTC)に作成
の風 6kt
気温 21°C
湿度 94%
気圧 1015 hPa
視程10km以上
1,500メートル以下は雲なし、積乱雲なし

METAR: SBPA 250500Z 10006KT CAVOK 21/20 Q1015

時間: 03:02 (06:02 UTC)

予報

当レポートは3時間2分前の03:00(UTC)に作成
予報は25日の 06時(UTC)から 26日の 06時(UTC)まで有効
の風 5kt
視程10km以上
高度1500ftの雲はほとんどない
確率 40% :
25日の 08時(UTC)から 25日の 10時(UTC)まで一時的に
視程: 6000m
高度1000ftの雲はほとんどない
25日の 12時(UTC)から 25日の 14時(UTC)まで徐々に
東/南東の風 10kt
高度3000ftの雲は散在している
間 26から0 UTC徐々に
の風 5kt
高度1500ftの雲はほとんどない

TAF: SBPA 250300Z 2506/2606 10005KT 9999 FEW015 TN20/2508Z TX30/2518Z PROB40 TEMPO 2508/2510 6000 FEW010 BECMG 2512/2514 12010KT SCT030 BECMG 260 0/2602 10005KT FEW015 RMK PDW

4,000以上の空港の気象観測と天気予報(METAR報とTAF報)

利用可能な観測所は地図上に黄色い丸と赤い丸で示す。

丸の上にカーソルを重ねると観測所名を参照できる。

次にクリックすると気象観測と天気予報を参照できる。

マップの切り替え:黒色「×」印の緑ボタンをクリックして拡大、「-」印の緑ボタンをクリックして縮小、緑色の三角印をクリックして隣りの地図に切り替え


METAR-TAF: